Time;durP1;ratioP1;P1;durP2;ratioP2;P2;SDS_P1;SDS_P2;PMS_P1;PMS_P2;Temp;Humidity;BMP_temperature;BMP_pressure;BME280_temperature;BME280_humidity;BME280_pressure;Samples;Min_cycle;Max_cycle;Signal;HPM_P1;HPM_P2
2022/06/13 00:00:01;;;;;;;;;;;19.80;99.90;;;;;;5022036;28;19928;-77
2022/06/13 00:02:26;;;;;;;;;;;19.70;99.90;;;;;;5020257;28;19906;-76
2022/06/13 00:04:52;;;;;;;;;;;19.60;99.90;;;;;;5022101;28;20388;-77
2022/06/13 00:07:17;;;;;;;;;;;19.50;99.90;;;;;;5021703;28;19947;-77
2022/06/13 00:09:43;;;;;;;;;;;19.40;99.90;;;;;;5022334;28;19956;-77
2022/06/13 00:12:08;;;;;;;;;;;19.30;99.90;;;;;;5021019;28;19905;-77
2022/06/13 00:14:34;;;;;;;;;;;19.30;99.90;;;;;;5024775;28;19920;-76
2022/06/13 00:17:01;;;;;;;;;;;19.10;99.90;;;;;;5025661;28;19973;-76
2022/06/13 00:19:26;;;;;;;;;;;19.00;99.90;;;;;;5025598;28;19931;-77
2022/06/13 00:21:52;;;;;;;;;;;18.90;99.90;;;;;;5026247;28;19977;-76
2022/06/13 00:24:17;;;;;;;;;;;18.80;99.90;;;;;;5024464;28;19913;-76
2022/06/13 00:26:43;;;;;;;;;;;18.70;99.90;;;;;;5017830;28;20661;-77
2022/06/13 00:29:08;;;;;;;;;;;18.60;99.90;;;;;;5017139;28;19921;-76
2022/06/13 00:31:34;;;;;;;;;;;18.60;99.90;;;;;;5018106;28;20349;-76
2022/06/13 00:33:59;;;;;;;;;;;18.50;99.90;;;;;;5017132;28;19917;-77
2022/06/13 00:36:25;;;;;;;;;;;18.30;99.90;;;;;;5020503;28;19912;-78
2022/06/13 00:38:51;;;;;;;;;;;18.20;99.90;;;;;;5017738;28;19960;-77
2022/06/13 00:41:20;;;;;;;;;;;18.20;99.90;;;;;;5016691;28;19913;-76
2022/06/13 00:43:46;;;;;;;;;;;18.10;99.90;;;;;;5017889;28;20000;-75
2022/06/13 00:46:20;;;;;;;;;;;18.10;99.90;;;;;;5018686;28;19943;-76
2022/06/13 00:48:46;;;;;;;;;;;18.10;99.90;;;;;;5015582;28;19922;-77
2022/06/13 00:51:11;;;;;;;;;;;18.10;99.90;;;;;;5016391;28;19912;-74
2022/06/13 00:53:37;;;;;;;;;;;18.10;99.90;;;;;;5016139;28;19905;-75
2022/06/13 00:56:06;;;;;;;;;;;18.10;99.90;;;;;;5015414;28;20016;-76
2022/06/13 00:58:35;;;;;;;;;;;18.20;99.90;;;;;;5015586;28;20000;-76
2022/06/13 01:01:00;;;;;;;;;;;18.20;99.90;;;;;;5016135;28;20285;-78
2022/06/13 01:03:28;;;;;;;;;;;18.20;99.90;;;;;;5016429;28;20443;-76
2022/06/13 01:05:54;;;;;;;;;;;18.20;99.90;;;;;;5016132;28;19951;-76
2022/06/13 01:08:21;;;;;;;;;;;18.10;99.90;;;;;;5016574;28;20281;-77
2022/06/13 01:13:51;;;;;;;;;;;18.20;99.90;;;;;;5016958;28;20005;-77
2022/06/13 01:16:35;;;;;;;;;;;18.10;99.90;;;;;;5014644;28;19905;-76
2022/06/13 01:19:01;;;;;;;;;;;18.20;99.90;;;;;;5014621;28;20003;-76
2022/06/13 01:21:34;;;;;;;;;;;18.30;99.90;;;;;;5014593;28;19959;-77
2022/06/13 01:24:32;;;;;;;;;;;18.30;99.90;;;;;;5014383;28;19906;-77
2022/06/13 01:27:00;;;;;;;;;;;18.20;99.90;;;;;;5003696;28;20354;-77
2022/06/13 01:29:31;;;;;;;;;;;18.20;99.90;;;;;;5015412;28;19913;-74
2022/06/13 01:32:09;;;;;;;;;;;18.20;99.90;;;;;;5014314;28;19910;-76
2022/06/13 01:34:53;;;;;;;;;;;18.20;99.90;;;;;;5015482;28;19925;-76
2022/06/13 01:37:31;;;;;;;;;;;18.30;99.90;;;;;;5016797;28;19917;-77
2022/06/13 01:40:05;;;;;;;;;;;18.30;99.90;;;;;;5014072;28;19912;-76
2022/06/13 01:42:34;;;;;;;;;;;18.30;99.90;;;;;;5013903;28;19906;-76
2022/06/13 01:45:05;;;;;;;;;;;18.30;99.90;;;;;;5015153;28;20004;-77
2022/06/13 01:47:49;;;;;;;;;;;18.20;99.90;;;;;;5015030;28;19905;-77
2022/06/13 01:50:33;;;;;;;;;;;17.90;99.90;;;;;;5015189;28;19909;-76
2022/06/13 01:53:06;;;;;;;;;;;17.80;99.90;;;;;;5015142;28;19909;-75
2022/06/13 01:55:35;;;;;;;;;;;17.80;99.90;;;;;;5013759;28;19905;-73
2022/06/13 01:58:08;;;;;;;;;;;17.80;99.90;;;;;;5014491;28;19905;-73
2022/06/13 02:00:34;;;;;;;;;;;17.70;99.90;;;;;;5014924;28;20278;-73
2022/06/13 02:03:29;;;;;;;;;;;17.60;99.90;;;;;;5014790;28;19976;-74
2022/06/13 02:05:58;;;;;;;;;;;17.50;99.90;;;;;;5004788;28;19906;-75
2022/06/13 02:08:30;;;;;;;;;;;17.50;99.90;;;;;;5014692;28;20020;-76
2022/06/13 02:11:08;;;;;;;;;;;17.60;99.90;;;;;;5014868;28;19910;-76
2022/06/13 02:13:34;;;;;;;;;;;17.60;99.90;;;;;;5014867;28;19905;-76
2022/06/13 02:16:02;;;;;;;;;;;17.60;99.90;;;;;;5013468;28;20312;-76
2022/06/13 02:18:33;;;;;;;;;;;17.50;99.90;;;;;;5013251;28;19960;-73
2022/06/13 02:21:02;;;;;;;;;;;17.50;99.90;;;;;;5013278;28;20281;-74
2022/06/13 02:23:30;;;;;;;;;;;17.50;99.90;;;;;;5013136;28;19932;-73
2022/06/13 02:26:00;;;;;;;;;;;17.60;99.90;;;;;;5013238;28;19951;-74
2022/06/13 02:28:31;;;;;;;;;;;17.60;99.90;;;;;;5014799;28;19973;-76
2022/06/13 02:31:02;;;;;;;;;;;17.60;99.90;;;;;;5014498;28;19910;-77
2022/06/13 02:33:31;;;;;;;;;;;17.60;99.90;;;;;;5014310;28;19905;-76
2022/06/13 02:36:01;;;;;;;;;;;17.50;99.90;;;;;;5014325;28;20001;-75
2022/06/13 02:38:26;;;;;;;;;;;17.50;99.90;;;;;;5012817;28;19960;-74
2022/06/13 02:40:54;;;;;;;;;;;17.50;99.90;;;;;;5014356;28;19909;-74
2022/06/13 02:43:26;;;;;;;;;;;17.60;99.90;;;;;;5012929;28;19906;-74
2022/06/13 02:45:54;;;;;;;;;;;17.60;99.90;;;;;;5016489;28;19920;-76
2022/06/13 02:48:34;;;;;;;;;;;17.60;99.90;;;;;;5016884;28;19971;-76
2022/06/13 02:51:17;;;;;;;;;;;17.60;99.90;;;;;;5014160;28;19909;-77
2022/06/13 02:53:43;;;;;;;;;;;17.60;99.90;;;;;;5012903;28;19905;-76
2022/06/13 02:56:13;;;;;;;;;;;17.70;99.90;;;;;;5012553;28;20035;-76
2022/06/13 02:58:47;;;;;;;;;;;17.70;99.90;;;;;;5013887;28;19932;-75
2022/06/13 03:01:16;;;;;;;;;;;17.70;99.90;;;;;;5012584;28;20282;-76
2022/06/13 03:03:59;;;;;;;;;;;17.70;99.90;;;;;;5013844;28;19912;-75
2022/06/13 03:06:40;;;;;;;;;;;17.70;99.90;;;;;;5012799;28;19992;-75
2022/06/13 03:09:15;;;;;;;;;;;17.80;99.90;;;;;;5011560;28;19914;-75
2022/06/13 03:11:53;;;;;;;;;;;17.80;99.90;;;;;;5012500;28;20350;-73
2022/06/13 03:14:21;;;;;;;;;;;17.70;99.90;;;;;;5013627;28;19995;-73
2022/06/13 03:16:57;;;;;;;;;;;17.70;99.90;;;;;;5012442;28;19905;-73
2022/06/13 03:19:23;;;;;;;;;;;17.70;99.90;;;;;;5013561;28;20361;-76
2022/06/13 03:21:55;;;;;;;;;;;17.60;99.90;;;;;;5013731;28;19917;-76
2022/06/13 03:24:30;;;;;;;;;;;17.60;99.90;;;;;;5013854;28;19912;-75
2022/06/13 03:26:59;;;;;;;;;;;17.60;99.90;;;;;;5013723;28;20361;-72
2022/06/13 03:29:27;;;;;;;;;;;17.60;99.90;;;;;;5014138;28;20338;-76
2022/06/13 03:31:57;;;;;;;;;;;17.60;99.90;;;;;;5013556;28;19909;-75
2022/06/13 03:34:28;;;;;;;;;;;17.70;99.90;;;;;;5013526;28;20361;-76
2022/06/13 03:36:57;;;;;;;;;;;17.70;99.90;;;;;;5013661;28;19905;-76
2022/06/13 03:39:25;;;;;;;;;;;17.70;99.90;;;;;;5013485;28;19909;-77
2022/06/13 03:41:52;;;;;;;;;;;17.70;99.90;;;;;;5012706;28;19906;-75
2022/06/13 03:44:27;;;;;;;;;;;17.80;99.90;;;;;;5013607;28;19912;-76
2022/06/13 03:47:01;;;;;;;;;;;17.80;99.90;;;;;;5012209;28;19928;-76
2022/06/13 03:49:46;;;;;;;;;;;17.80;99.90;;;;;;5013379;28;20059;-73
2022/06/13 03:52:13;;;;;;;;;;;17.80;99.90;;;;;;5013197;28;19913;-73
2022/06/13 03:54:38;;;;;;;;;;;17.80;99.90;;;;;;5012057;28;20273;-73
2022/06/13 03:57:12;;;;;;;;;;;17.80;99.90;;;;;;5013311;28;19905;-73
2022/06/13 03:59:37;;;;;;;;;;;17.90;99.90;;;;;;5013485;28;19912;-75
2022/06/13 04:02:11;;;;;;;;;;;18.00;99.90;;;;;;5013273;28;19910;-73
2022/06/13 04:05:03;;;;;;;;;;;18.00;99.90;;;;;;5013323;28;19906;-76
2022/06/13 04:07:30;;;;;;;;;;;18.00;99.90;;;;;;5011690;28;19905;-73
2022/06/13 04:10:03;;;;;;;;;;;17.90;99.90;;;;;;5011712;28;19992;-73
2022/06/13 04:12:29;;;;;;;;;;;18.00;99.90;;;;;;5011754;28;19917;-73
2022/06/13 04:15:07;;;;;;;;;;;18.00;99.90;;;;;;5011917;28;20368;-74
2022/06/13 04:17:39;;;;;;;;;;;18.10;99.90;;;;;;5013450;28;19952;-73
2022/06/13 04:20:30;;;;;;;;;;;18.10;99.90;;;;;;5014793;28;19905;-76
2022/06/13 04:23:22;;;;;;;;;;;18.10;99.90;;;;;;5016954;28;19905;-73
2022/06/13 04:25:51;;;;;;;;;;;18.10;99.90;;;;;;5013140;28;19905;-73
2022/06/13 04:28:22;;;;;;;;;;;18.00;99.90;;;;;;5016489;28;19917;-73
2022/06/13 04:30:50;;;;;;;;;;;18.10;99.90;;;;;;5015210;28;19971;-73
2022/06/13 04:33:27;;;;;;;;;;;18.00;99.90;;;;;;5016532;28;19943;-74
2022/06/13 04:35:53;;;;;;;;;;;18.10;99.90;;;;;;5016498;28;20003;-75
2022/06/13 04:38:19;;;;;;;;;;;;;;;;;;5016568;28;19941;-76
2022/06/13 04:40:47;;;;;;;;;;;18.10;99.90;;;;;;5015264;28;19905;-75
2022/06/13 04:43:14;;;;;;;;;;;18.20;99.90;;;;;;5014933;28;20004;-75
2022/06/13 04:45:48;;;;;;;;;;;18.20;99.90;;;;;;5014909;28;19916;-77
2022/06/13 04:48:14;;;;;;;;;;;18.20;99.90;;;;;;5014853;28;20309;-75
2022/06/13 04:50:43;;;;;;;;;;;18.10;99.90;;;;;;5016613;28;19952;-74
2022/06/13 04:53:13;;;;;;;;;;;18.00;99.90;;;;;;5014890;28;19913;-75
2022/06/13 04:55:43;;;;;;;;;;;18.10;99.90;;;;;;5016344;28;19913;-75
2022/06/13 04:58:34;;;;;;;;;;;18.10;99.90;;;;;;5016085;28;19941;-75
2022/06/13 05:01:06;;;;;;;;;;;18.20;99.90;;;;;;5015195;28;19923;-76
2022/06/13 05:03:35;;;;;;;;;;;18.20;99.90;;;;;;5016172;28;20277;-76
2022/06/13 05:06:05;;;;;;;;;;;18.20;99.90;;;;;;5017153;28;19913;-76
2022/06/13 05:08:34;;;;;;;;;;;18.10;99.90;;;;;;5016773;28;19913;-75
2022/06/13 05:11:03;;;;;;;;;;;18.10;99.90;;;;;;5020107;28;19971;-75
2022/06/13 05:13:28;;;;;;;;;;;18.10;99.90;;;;;;5014655;28;20261;-75
2022/06/13 05:16:02;;;;;;;;;;;18.10;99.90;;;;;;5021644;28;19906;-75
2022/06/13 05:18:34;;;;;;;;;;;18.10;99.90;;;;;;5017804;28;19959;-75
2022/06/13 05:21:18;;;;;;;;;;;18.10;99.90;;;;;;5015651;28;19905;-75
2022/06/13 05:24:02;;;;;;;;;;;18.10;99.90;;;;;;5016757;28;19905;-76
2022/06/13 05:26:29;;;;;;;;;;;18.30;99.90;;;;;;5015640;28;19910;-75
2022/06/13 05:28:55;;;;;;;;;;;18.30;99.90;;;;;;5015474;28;20028;-75
2022/06/13 05:31:21;;;;;;;;;;;18.30;99.90;;;;;;5013352;28;20067;-75
2022/06/13 05:33:47;;;;;;;;;;;18.30;99.90;;;;;;5016169;28;19949;-76
2022/06/13 05:36:18;;;;;;;;;;;18.30;99.90;;;;;;5017897;28;19960;-75
2022/06/13 05:38:43;;;;;;;;;;;18.40;99.90;;;;;;5017096;28;19909;-76
2022/06/13 05:41:09;;;;;;;;;;;18.40;99.90;;;;;;5013976;28;19916;-76
2022/06/13 05:43:35;;;;;;;;;;;18.30;99.90;;;;;;5014032;28;19968;-76
2022/06/13 05:46:02;;;;;;;;;;;18.20;99.90;;;;;;5014070;28;19906;-75
2022/06/13 05:48:27;;;;;;;;;;;18.10;99.90;;;;;;5013960;28;19983;-75
2022/06/13 05:50:54;;;;;;;;;;;18.00;99.90;;;;;;5013861;28;19909;-75
2022/06/13 05:53:20;;;;;;;;;;;18.00;99.90;;;;;;5013864;28;19925;-75
2022/06/13 05:55:47;;;;;;;;;;;18.00;99.90;;;;;;5015160;28;19912;-75
2022/06/13 05:58:14;;;;;;;;;;;17.90;99.90;;;;;;5013661;28;19905;-76
2022/06/13 06:00:41;;;;;;;;;;;17.90;99.90;;;;;;5015185;28;19921;-75
2022/06/13 06:03:07;;;;;;;;;;;17.90;99.90;;;;;;5019713;28;19951;-76
2022/06/13 06:05:33;;;;;;;;;;;17.70;99.90;;;;;;5018561;28;19937;-75
2022/06/13 06:07:58;;;;;;;;;;;17.70;99.90;;;;;;5017876;28;19967;-75
2022/06/13 06:10:27;;;;;;;;;;;17.70;99.90;;;;;;5017072;28;19909;-76
2022/06/13 06:12:53;;;;;;;;;;;17.80;99.90;;;;;;5016606;28;20321;-76
2022/06/13 06:15:18;;;;;;;;;;;17.70;99.90;;;;;;5015434;28;20408;-79
2022/06/13 06:17:44;;;;;;;;;;;17.80;99.90;;;;;;5014561;28;20273;-75
2022/06/13 06:20:28;;;;;;;;;;;17.90;99.90;;;;;;5014162;28;19909;-79
2022/06/13 06:22:53;;;;;;;;;;;17.90;99.90;;;;;;5016034;28;19963;-77
2022/06/13 06:25:19;;;;;;;;;;;18.00;99.90;;;;;;5016070;28;20318;-76
2022/06/13 06:27:44;;;;;;;;;;;18.10;99.90;;;;;;5017158;28;20356;-78
2022/06/13 06:30:11;;;;;;;;;;;18.30;99.90;;;;;;5015750;28;19955;-77
2022/06/13 06:32:36;;;;;;;;;;;18.40;99.90;;;;;;5016620;28;19941;-77
2022/06/13 06:35:02;;;;;;;;;;;18.40;99.90;;;;;;5016837;28;19918;-78
2022/06/13 06:37:27;;;;;;;;;;;18.40;99.90;;;;;;5014613;28;19905;-77
2022/06/13 06:39:56;;;;;;;;;;;18.40;99.90;;;;;;5015344;28;19912;-77
2022/06/13 06:42:22;;;;;;;;;;;18.20;99.90;;;;;;5015604;28;19905;-77
2022/06/13 06:44:47;;;;;;;;;;;18.00;99.90;;;;;;5016675;28;19912;-77
2022/06/13 06:47:13;;;;;;;;;;;17.60;99.90;;;;;;5015434;28;19928;-76
2022/06/13 06:49:38;;;;;;;;;;;17.50;99.90;;;;;;5014757;28;20403;-77
2022/06/13 06:52:05;;;;;;;;;;;17.40;99.90;;;;;;5015841;28;20425;-76
2022/06/13 06:59:59;;;;;;;;;;;17.60;99.90;;;;;;5015369;28;19912;-77
2022/06/13 07:02:29;;;;;;;;;;;17.70;99.90;;;;;;5015047;28;19912;-76
2022/06/13 07:04:55;;;;;;;;;;;17.70;99.90;;;;;;5013960;28;19939;-77
2022/06/13 07:07:21;;;;;;;;;;;17.90;99.90;;;;;;5015746;28;20277;-77
2022/06/13 07:09:47;;;;;;;;;;;17.90;99.90;;;;;;5015905;28;19996;-77
2022/06/13 07:12:13;;;;;;;;;;;17.90;99.90;;;;;;5014182;28;19905;-77
2022/06/13 07:14:38;;;;;;;;;;;17.90;99.90;;;;;;5013850;28;19959;-77
2022/06/13 07:17:05;;;;;;;;;;;17.90;99.90;;;;;;5012417;28;19905;-76
2022/06/13 07:19:30;;;;;;;;;;;18.00;99.90;;;;;;5014127;28;19906;-76
2022/06/13 07:21:56;;;;;;;;;;;18.20;99.90;;;;;;5012557;28;19959;-75
2022/06/13 07:24:22;;;;;;;;;;;18.50;99.90;;;;;;5013796;28;19949;-78
2022/06/13 07:26:48;;;;;;;;;;;18.70;99.90;;;;;;5013651;28;19905;-77
2022/06/13 07:29:16;;;;;;;;;;;18.70;99.90;;;;;;5012197;28;19913;-76
2022/06/13 07:31:43;;;;;;;;;;;18.60;99.90;;;;;;5012344;28;19949;-78
2022/06/13 07:34:17;;;;;;;;;;;18.60;99.90;;;;;;5013469;28;19920;-76
2022/06/13 07:36:43;;;;;;;;;;;18.90;99.90;;;;;;5013747;28;20358;-76
2022/06/13 07:39:09;;;;;;;;;;;18.90;99.90;;;;;;5012494;28;19906;-77
2022/06/13 07:41:36;;;;;;;;;;;19.30;99.90;;;;;;5013376;28;19905;-78
2022/06/13 07:44:02;;;;;;;;;;;18.90;99.90;;;;;;5011982;28;19909;-76
2022/06/13 07:46:28;;;;;;;;;;;19.60;99.90;;;;;;5013361;28;19912;-79
2022/06/13 07:48:54;;;;;;;;;;;20.30;99.90;;;;;;5013236;28;19921;-79
2022/06/13 07:51:21;;;;;;;;;;;20.40;99.90;;;;;;5013868;28;19913;-79
2022/06/13 07:53:46;;;;;;;;;;;20.40;99.90;;;;;;5014125;28;19905;-79
2022/06/13 07:56:13;;;;;;;;;;;20.20;99.90;;;;;;5016673;28;19996;-79
2022/06/13 07:58:41;;;;;;;;;;;20.10;99.90;;;;;;5018593;28;19905;-78
2022/06/13 08:01:06;;;;;;;;;;;20.50;99.90;;;;;;5015882;28;19906;-79
2022/06/13 08:03:33;;;;;;;;;;;20.70;99.90;;;;;;5015869;28;19905;-77
2022/06/13 08:05:58;;;;;;;;;;;20.10;99.90;;;;;;5017505;28;19905;-76
2022/06/13 08:08:24;;;;;;;;;;;19.60;99.90;;;;;;5017140;28;20008;-78
2022/06/13 08:10:51;;;;;;;;;;;19.10;99.90;;;;;;5017167;28;20281;-79
2022/06/13 08:13:17;;;;;;;;;;;19.10;99.90;;;;;;5015723;28;19906;-78
2022/06/13 08:15:43;;;;;;;;;;;19.40;99.90;;;;;;5015836;28;20012;-78
2022/06/13 08:18:10;;;;;;;;;;;20.50;99.90;;;;;;5015604;28;19956;-77
2022/06/13 08:20:35;;;;;;;;;;;20.50;99.90;;;;;;5015724;28;19906;-76
2022/06/13 08:23:03;;;;;;;;;;;21.50;99.90;;;;;;5016803;28;20296;-76
2022/06/13 08:25:30;;;;;;;;;;;21.80;97.20;;;;;;5017049;28;19909;-77
2022/06/13 08:27:59;;;;;;;;;;;21.90;99.90;;;;;;5015529;28;19917;-76
2022/06/13 08:30:26;;;;;;;;;;;21.80;99.90;;;;;;5016868;28;19924;-74
2022/06/13 08:32:51;;;;;;;;;;;22.20;99.50;;;;;;5016777;28;19951;-74
2022/06/13 08:35:17;;;;;;;;;;;21.30;99.90;;;;;;5015215;28;19917;-75
2022/06/13 08:37:42;;;;;;;;;;;21.30;99.90;;;;;;5016657;28;20269;-75
2022/06/13 08:40:09;;;;;;;;;;;21.50;99.90;;;;;;5015042;28;20000;-75
2022/06/13 08:42:35;;;;;;;;;;;20.90;99.90;;;;;;5016268;28;19909;-76
2022/06/13 08:45:15;;;;;;;;;;;21.70;99.90;;;;;;5016466;28;19969;-74
2022/06/13 08:47:41;;;;;;;;;;;22.00;99.90;;;;;;5015186;28;19913;-75
2022/06/13 08:50:25;;;;;;;;;;;22.20;99.90;;;;;;5016579;28;19984;-77
2022/06/13 08:52:55;;;;;;;;;;;22.20;99.90;;;;;;5016457;28;20431;-73
2022/06/13 08:55:20;;;;;;;;;;;22.10;99.90;;;;;;5016330;28;19905;-73
2022/06/13 08:57:48;;;;;;;;;;;22.40;95.50;;;;;;5016121;28;20285;-76
2022/06/13 09:00:24;;;;;;;;;;;23.20;84.20;;;;;;5014853;28;19912;-75
2022/06/13 09:02:55;;;;;;;;;;;22.70;87.20;;;;;;5016166;28;20285;-73
2022/06/13 09:05:27;;;;;;;;;;;22.80;91.20;;;;;;5015924;28;19913;-78
2022/06/13 09:08:05;;;;;;;;;;;21.80;96.90;;;;;;5016155;28;19948;-76
2022/06/13 09:10:35;;;;;;;;;;;21.90;99.90;;;;;;5016188;28;19909;-76
2022/06/13 09:13:22;;;;;;;;;;;22.30;99.90;;;;;;5015920;28;19928;-75
2022/06/13 09:15:52;;;;;;;;;;;22.70;90.50;;;;;;5015809;28;19927;-76
2022/06/13 09:18:25;;;;;;;;;;;23.40;92.90;;;;;;5015790;28;19905;-76
2022/06/13 09:21:00;;;;;;;;;;;23.80;72.60;;;;;;5014358;28;19905;-77
2022/06/13 09:23:35;;;;;;;;;;;24.00;81.10;;;;;;5016117;28;19905;-76
2022/06/13 09:26:16;;;;;;;;;;;24.10;67.80;;;;;;5015756;28;19928;-73
2022/06/13 09:29:08;;;;;;;;;;;24.30;70.30;;;;;;5015619;28;20018;-76
2022/06/13 09:31:35;;;;;;;;;;;24.50;66.60;;;;;;5015521;28;19951;-73
2022/06/13 09:34:12;;;;;;;;;;;24.20;69.70;;;;;;5015430;28;19917;-74
2022/06/13 09:36:43;;;;;;;;;;;23.70;73.60;;;;;;5015336;28;19905;-76
2022/06/13 09:39:10;;;;;;;;;;;23.50;74.10;;;;;;5015622;28;20335;-76
2022/06/13 09:41:39;;;;;;;;;;;23.60;69.90;;;;;;5014279;28;19909;-73
2022/06/13 09:44:13;;;;;;;;;;;23.90;68.70;;;;;;5014196;28;19948;-73
2022/06/13 09:46:38;;;;;;;;;;;23.50;71.20;;;;;;5015545;28;20346;-74
2022/06/13 09:49:16;;;;;;;;;;;24.00;68.60;;;;;;5013919;28;19913;-74
2022/06/13 09:51:48;;;;;;;;;;;24.30;64.20;;;;;;5013940;28;19995;-76
2022/06/13 09:54:13;;;;;;;;;;;24.70;67.30;;;;;;5015040;28;19919;-76
2022/06/13 09:56:59;;;;;;;;;;;23.90;65.00;;;;;;5013811;28;19909;-75
2022/06/13 09:59:34;;;;;;;;;;;22.90;78.10;;;;;;5006797;28;20416;-74
2022/06/13 10:02:04;;;;;;;;;;;23.50;72.20;;;;;;5015424;28;19909;-75
2022/06/13 10:04:50;;;;;;;;;;;23.50;69.00;;;;;;5014117;28;19909;-75
2022/06/13 10:07:31;;;;;;;;;;;23.20;69.50;;;;;;5015163;28;19913;-76
2022/06/13 10:10:07;;;;;;;;;;;21.70;93.00;;;;;;5015021;28;19919;-76
2022/06/13 10:12:39;;;;;;;;;;;22.30;92.70;;;;;;5013718;28;19909;-75
2022/06/13 10:15:05;;;;;;;;;;;22.80;80.90;;;;;;5013759;28;19912;-76
2022/06/13 10:17:34;;;;;;;;;;;22.50;84.00;;;;;;5014627;28;19905;-82
2022/06/13 10:20:04;;;;;;;;;;;23.00;97.20;;;;;;5014995;28;20341;-79
2022/06/13 10:22:35;;;;;;;;;;;23.30;76.90;;;;;;5015111;28;19905;-82
2022/06/13 10:25:10;;;;;;;;;;;23.30;73.20;;;;;;5014826;28;19913;-80
2022/06/13 10:27:35;;;;;;;;;;;22.70;80.00;;;;;;5013325;28;20000;-79
2022/06/13 10:30:16;;;;;;;;;;;22.30;86.50;;;;;;5014404;28;20004;-80
2022/06/13 10:32:51;;;;;;;;;;;22.60;96.40;;;;;;5013360;28;19905;-77
2022/06/13 10:35:22;;;;;;;;;;;23.20;93.20;;;;;;5014318;28;20444;-76
2022/06/13 10:37:56;;;;;;;;;;;24.30;62.90;;;;;;5014405;28;19932;-76
2022/06/13 10:40:22;;;;;;;;;;;24.20;63.30;;;;;;5014384;28;19910;-75
2022/06/13 10:42:48;;;;;;;;;;;23.70;68.30;;;;;;5014444;28;19972;-75
2022/06/13 10:45:15;;;;;;;;;;;23.80;66.50;;;;;;5014198;28;19909;-73
2022/06/13 10:47:50;;;;;;;;;;;24.10;63.10;;;;;;5012707;28;20353;-75
2022/06/13 10:50:18;;;;;;;;;;;24.30;62.10;;;;;;5014168;28;20372;-79
2022/06/13 10:52:46;;;;;;;;;;;23.60;62.50;;;;;;5014305;28;19905;-77
2022/06/13 10:55:13;;;;;;;;;;;23.70;60.40;;;;;;5014228;28;19936;-76
2022/06/13 10:57:59;;;;;;;;;;;24.10;61.20;;;;;;5014230;28;20378;-76
2022/06/13 11:00:26;;;;;;;;;;;24.10;60.70;;;;;;5013769;28;19905;-77
2022/06/13 11:03:08;;;;;;;;;;;24.40;60.90;;;;;;5015000;28;19968;-76
2022/06/13 11:05:46;;;;;;;;;;;25.10;60.80;;;;;;5016785;28;19905;-78
2022/06/13 11:08:14;;;;;;;;;;;25.30;58.30;;;;;;5014963;28;19909;-76
2022/06/13 11:10:41;;;;;;;;;;;25.20;59.90;;;;;;5014082;28;19920;-78
2022/06/13 11:13:14;;;;;;;;;;;25.50;59.40;;;;;;5013960;28;19973;-76
2022/06/13 11:24:21;;;;;;;;;;;23.60;62.90;;;;;;5014088;28;19913;-76
2022/06/13 11:29:33;;;;;;;;;;;24.40;59.20;;;;;;5014682;28;19967;-76
2022/06/13 11:32:00;;;;;;;;;;;25.10;62.40;;;;;;5017817;28;20273;-76
2022/06/13 11:34:25;;;;;;;;;;;25.90;58.70;;;;;;5017723;28;19917;-76
2022/06/13 11:36:58;;;;;;;;;;;26.40;56.90;;;;;;5017759;28;20451;-77
2022/06/13 11:39:32;;;;;;;;;;;26.50;57.40;;;;;;5016651;28;19959;-79
2022/06/13 11:41:57;;;;;;;;;;;25.00;55.80;;;;;;5017566;28;19928;-75
2022/06/13 11:44:23;;;;;;;;;;;24.30;58.10;;;;;;5016412;28;19905;-76
2022/06/13 11:46:55;;;;;;;;;;;24.70;57.40;;;;;;5017693;28;19964;-73
2022/06/13 11:49:33;;;;;;;;;;;25.10;56.10;;;;;;5016298;28;20321;-76
2022/06/13 11:52:05;;;;;;;;;;;25.40;57.90;;;;;;5017625;28;19905;-75
2022/06/13 11:54:41;;;;;;;;;;;25.40;56.00;;;;;;5017559;28;19910;-75
2022/06/13 11:57:09;;;;;;;;;;;25.50;56.90;;;;;;5017337;28;19905;-75
2022/06/13 11:59:43;;;;;;;;;;;26.50;51.50;;;;;;5015946;28;19912;-76
2022/06/13 12:02:15;;;;;;;;;;;27.00;52.90;;;;;;5016092;28;19906;-76
2022/06/13 12:04:44;;;;;;;;;;;28.20;48.70;;;;;;5017228;28;19952;-76
2022/06/13 12:07:19;;;;;;;;;;;27.10;51.40;;;;;;5017281;28;19912;-76
2022/06/13 12:09:50;;;;;;;;;;;26.30;51.10;;;;;;5017150;28;19913;-75
2022/06/13 12:12:16;;;;;;;;;;;25.60;51.20;;;;;;5017164;28;19988;-78
2022/06/13 12:14:42;;;;;;;;;;;25.90;53.00;;;;;;5017140;28;19909;-76
2022/06/13 12:17:19;;;;;;;;;;;26.00;53.40;;;;;;5015591;28;19985;-75
2022/06/13 12:19:52;;;;;;;;;;;26.80;51.40;;;;;;5017071;28;19913;-75
2022/06/13 12:22:36;;;;;;;;;;;26.10;52.70;;;;;;5017065;28;20369;-76
2022/06/13 12:25:05;;;;;;;;;;;26.60;54.00;;;;;;5015627;28;20376;-77
2022/06/13 12:27:40;;;;;;;;;;;25.80;51.20;;;;;;5016933;28;20305;-76
2022/06/13 12:30:24;;;;;;;;;;;26.10;50.50;;;;;;5016815;28;20311;-76
2022/06/13 12:32:56;;;;;;;;;;;26.60;49.20;;;;;;5016802;28;20358;-75
2022/06/13 12:35:33;;;;;;;;;;;26.00;50.70;;;;;;5016308;28;19929;-75
2022/06/13 12:38:07;;;;;;;;;;;25.90;51.30;;;;;;5016439;28;19912;-76
2022/06/13 12:40:41;;;;;;;;;;;26.10;52.50;;;;;;5016213;28;19906;-76
2022/06/13 12:43:21;;;;;;;;;;;27.40;53.10;;;;;;5016653;28;19914;-76
2022/06/13 12:45:47;;;;;;;;;;;27.80;47.90;;;;;;5016604;28;20008;-76
2022/06/13 12:48:17;;;;;;;;;;;27.40;47.40;;;;;;5016469;28;20047;-81
2022/06/13 12:50:43;;;;;;;;;;;27.70;46.60;;;;;;5016547;28;20004;-78
2022/06/13 12:53:08;;;;;;;;;;;27.60;47.50;;;;;;5016519;28;19905;-77
2022/06/13 12:55:34;;;;;;;;;;;28.40;45.60;;;;;;5014938;28;19905;-81
2022/06/13 12:58:02;;;;;;;;;;;28.80;45.80;;;;;;5014956;28;19928;-79
2022/06/13 13:00:36;;;;;;;;;;;28.60;44.40;;;;;;5015163;28;19906;-76
2022/06/13 13:03:05;;;;;;;;;;;27.90;44.60;;;;;;5015786;28;19944;-77
2022/06/13 13:05:41;;;;;;;;;;;26.00;45.00;;;;;;5016355;28;19995;-76
2022/06/13 13:08:33;;;;;;;;;;;27.60;46.50;;;;;;5014698;28;19948;-78
2022/06/13 13:11:10;;;;;;;;;;;27.50;47.20;;;;;;5031088;28;19921;-76
2022/06/13 13:13:51;;;;;;;;;;;28.10;45.00;;;;;;5014557;28;19905;-76
2022/06/13 13:16:46;;;;;;;;;;;28.60;43.50;;;;;;5016009;28;20007;-76
2022/06/13 13:19:15;;;;;;;;;;;29.20;43.80;;;;;;5006033;28;19913;-76
2022/06/13 13:21:41;;;;;;;;;;;28.70;43.00;;;;;;5014719;28;19932;-76
2022/06/13 13:24:25;;;;;;;;;;;28.60;43.40;;;;;;5015786;28;19920;-75
2022/06/13 13:27:03;;;;;;;;;;;28.40;43.60;;;;;;5015735;28;19996;-77
2022/06/13 13:29:32;;;;;;;;;;;29.50;45.20;;;;;;5014218;28;20342;-77
2022/06/13 13:32:04;;;;;;;;;;;28.40;45.20;;;;;;5014334;28;19905;-78
2022/06/13 13:34:30;;;;;;;;;;;29.30;44.50;;;;;;5015601;28;19928;-77
2022/06/13 13:37:05;;;;;;;;;;;28.30;43.70;;;;;;5015658;28;19905;-76
2022/06/13 13:39:39;;;;;;;;;;;27.30;46.20;;;;;;5015764;28;19909;-75
2022/06/13 13:42:13;;;;;;;;;;;27.60;45.80;;;;;;5015496;28;19912;-76
2022/06/13 13:44:46;;;;;;;;;;;27.40;44.50;;;;;;5015505;28;19905;-75
2022/06/13 13:47:19;;;;;;;;;;;27.20;46.50;;;;;;5014074;28;19913;-76
